Time;durP1;ratioP1;P1;durP2;ratioP2;P2;SDS_P1;SDS_P2;PMS_P1;PMS_P2;Temp;Humidity;BMP_temperature;BMP_pressure;BME280_temperature;BME280_humidity;BME280_pressure;Samples;Min_cycle;Max_cycle;Signal;HPM_P1;HPM_P2
2023/12/16 00:00:43;;;;;;;1.42;1.42;;;;;;;2.72;100.00;102070.69;5058058;28;20044;-73
2023/12/16 00:03:10;;;;;;;1.30;1.30;;;;;;;2.59;100.00;102042.25;5047825;28;20131;-74
2023/12/16 00:05:36;;;;;;;9.90;9.23;;;;;;;2.75;100.00;102083.81;5064999;28;20028;-73
2023/12/16 00:08:01;;;;;;;0.30;0.30;;;;;;;3.01;100.00;102096.53;5070304;28;20045;-74
2023/12/16 00:10:27;;;;;;;0.88;0.88;;;;;;;3.19;100.00;102161.53;5061456;28;20039;-74
2023/12/16 00:12:52;;;;;;;2.53;2.42;;;;;;;3.07;100.00;102126.31;5059630;28;20115;-74
2023/12/16 00:15:18;;;;;;;0.40;0.40;;;;;;;2.60;100.00;102071.66;5063295;28;20487;-74
2023/12/16 00:17:43;;;;;;;4.43;4.22;;;;;;;3.05;100.00;102153.84;5056654;28;20051;-74
2023/12/16 00:20:09;;;;;;;3.25;2.95;;;;;;;2.88;100.00;102124.34;5065720;28;20052;-74
2023/12/16 00:22:38;;;;;;;0.88;0.88;;;;;;;3.22;100.00;102156.53;5039579;28;20098;-74
2023/12/16 00:25:06;;;;;;;0.30;0.30;;;;;;;3.10;100.00;102141.16;5058651;28;20036;-75
2023/12/16 00:27:32;;;;;;;0.70;0.65;;;;;;;3.00;100.00;102144.91;5036199;28;20053;-74
2023/12/16 00:29:57;;;;;;;2.25;2.15;;;;;;;2.77;100.00;102088.22;5051289;28;20044;-74
2023/12/16 00:32:23;;;;;;;2.33;2.17;;;;;;;2.78;100.00;102093.47;5058834;28;20068;-74
2023/12/16 00:34:48;;;;;;;0.65;0.65;;;;;;;3.19;100.00;102175.41;5064098;28;20095;-75
2023/12/16 00:37:14;;;;;;;0.63;0.63;;;;;;;2.80;100.00;102076.31;5064602;28;20042;-74
2023/12/16 00:39:39;;;;;;;0.40;0.40;;;;;;;3.37;100.00;102189.44;5060428;28;20058;-75
2023/12/16 00:42:05;;;;;;;0.95;0.95;;;;;;;3.06;100.00;102163.41;5057856;28;20044;-74
2023/12/16 00:44:31;;;;;;;2.80;2.70;;;;;;;2.68;100.00;102089.47;5052938;28;20092;-74
2023/12/16 00:46:57;;;;;;;0.50;0.50;;;;;;;2.66;100.00;102092.75;5060397;28;20471;-73
2023/12/16 00:49:23;;;;;;;3.22;3.05;;;;;;;3.17;100.00;102201.25;5061966;28;20067;-74
2023/12/16 00:51:49;;;;;;;0.45;0.45;;;;;;;3.15;100.00;102196.75;5058840;28;20502;-74
2023/12/16 00:54:17;;;;;;;0.30;0.30;;;;;;;2.65;100.00;102106.53;5058366;28;20051;-73
2023/12/16 00:56:44;;;;;;;7.95;3.85;;;;;;;3.18;100.00;102189.16;5059062;28;20052;-74
2023/12/16 00:59:09;;;;;;;0.30;0.30;;;;;;;3.02;100.00;102163.13;5060816;28;20139;-73
2023/12/16 01:01:35;;;;;;;0.63;0.63;;;;;;;3.07;100.00;102230.03;5064566;28;20103;-74
2023/12/16 01:04:00;;;;;;;3.67;3.47;;;;;;;2.55;100.00;102110.25;5064899;28;20029;-74
2023/12/16 01:06:26;;;;;;;0.68;0.68;;;;;;;2.52;100.00;102117.84;5062889;28;20159;-74
2023/12/16 01:08:51;;;;;;;5.45;2.30;;;;;;;2.99;100.00;102181.09;5061752;28;20041;-74
2023/12/16 01:11:17;;;;;;;5.05;4.55;;;;;;;3.24;100.00;102228.44;5060862;28;20055;-74
2023/12/16 01:13:42;;;;;;;1.55;1.45;;;;;;;3.37;100.00;102233.56;5059138;28;20079;-73
2023/12/16 01:16:08;;;;;;;0.85;0.85;;;;;;;2.68;100.00;102133.50;5059868;28;20071;-75
2023/12/16 01:18:33;;;;;;;1.92;1.83;;;;;;;3.26;100.00;102202.59;5060246;28;20123;-74
2023/12/16 01:21:05;;;;;;;0.73;0.73;;;;;;;3.10;100.00;102247.47;5060230;28;20048;-74
2023/12/16 01:23:30;;;;;;;0.52;0.52;;;;;;;2.64;100.00;102141.00;5060225;28;20101;-74
2023/12/16 01:25:56;;;;;;;9.75;9.18;;;;;;;3.28;100.00;102235.59;5064593;28;20040;-73
2023/12/16 01:28:21;;;;;;;0.85;0.85;;;;;;;2.78;100.00;102147.03;5059955;28;20047;-73
2023/12/16 01:30:47;;;;;;;3.00;2.80;;;;;;;2.88;100.00;102164.91;5065251;28;20052;-72
2023/12/16 01:33:13;;;;;;;0.63;0.63;;;;;;;2.91;100.00;102145.25;5061652;28;20127;-74
2023/12/16 01:35:38;;;;;;;2.28;2.15;;;;;;;3.55;100.00;102254.47;5064168;28;20523;-75
2023/12/16 01:38:04;;;;;;;0.57;0.57;;;;;;;2.85;100.00;102164.72;5055882;28;20071;-73
2023/12/16 01:40:29;;;;;;;0.45;0.45;;;;;;;2.82;100.00;102168.03;5061448;28;20039;-73
2023/12/16 01:42:56;;;;;;;0.35;0.35;;;;;;;2.81;100.00;102157.56;5059280;28;20105;-74
2023/12/16 01:45:21;;;;;;;1.20;1.15;;;;;;;3.33;100.00;102254.03;5037152;28;20851;-73
2023/12/16 01:47:47;;;;;;;0.68;0.68;;;;;;;3.39;100.00;102264.75;5065053;28;20114;-74
2023/12/16 01:50:14;;;;;;;0.40;0.40;;;;;;;2.87;100.00;102173.50;5063178;28;20146;-76
2023/12/16 01:52:43;;;;;;;1.30;0.73;;;;;;;2.90;100.00;102182.38;5063145;28;20049;-73
2023/12/16 01:55:13;;;;;;;0.43;0.43;;;;;;;3.45;100.00;102287.59;5058920;28;20060;-73
2023/12/16 01:57:39;;;;;;;0.40;0.40;;;;;;;3.35;100.00;102278.38;5058596;28;20059;-74
2023/12/16 02:00:06;;;;;;;3.80;3.60;;;;;;;3.33;100.00;102286.06;5060589;28;20071;-75
2023/12/16 02:02:31;;;;;;;1.25;1.25;;;;;;;3.06;100.00;102230.81;5056215;28;20583;-73
2023/12/16 02:04:57;;;;;;;0.40;0.40;;;;;;;2.74;100.00;102190.91;5060609;28;20051;-75
2023/12/16 02:07:23;;;;;;;2.65;2.55;;;;;;;2.92;100.00;102258.50;5038019;28;20036;-75
2023/12/16 02:09:51;;;;;;;0.75;0.75;;;;;;;3.02;100.00;102261.66;5065057;28;20111;-74
2023/12/16 02:12:16;;;;;;;1.65;1.42;;;;;;;2.71;100.00;102182.03;5046785;28;20036;-74
2023/12/16 02:14:43;;;;;;;0.32;0.32;;;;;;;3.20;100.00;102254.09;5062328;28;20044;-75
2023/12/16 02:17:09;;;;;;;0.40;0.40;;;;;;;3.05;100.00;102293.00;5065448;28;20064;-74
2023/12/16 02:19:36;;;;;;;0.73;0.73;;;;;;;3.38;100.00;102310.56;5067051;28;20028;-74
2023/12/16 02:22:01;;;;;;;0.40;0.40;;;;;;;2.66;100.00;102205.09;5067051;28;20035;-74
2023/12/16 02:24:28;;;;;;;2.45;2.35;;;;;;;2.63;100.00;102220.47;5061290;28;20048;-75
2023/12/16 02:26:55;;;;;;;0.40;0.40;;;;;;;3.00;100.00;102246.03;5056885;28;20072;-73
2023/12/16 02:29:22;;;;;;;1.63;1.55;;;;;;;2.74;100.00;102222.00;5069282;28;20078;-74
2023/12/16 02:31:47;;;;;;;0.32;0.32;;;;;;;3.31;100.00;102321.38;5068257;28;20064;-73
2023/12/16 02:34:13;;;;;;;0.38;0.38;;;;;;;2.88;100.00;102243.59;5068666;28;20068;-73
2023/12/16 02:36:39;;;;;;;0.40;0.40;;;;;;;2.90;100.00;102309.41;5065185;28;20183;-74
2023/12/16 02:39:04;;;;;;;0.60;0.60;;;;;;;2.54;100.00;102238.91;5064024;28;20056;-74
2023/12/16 02:41:29;;;;;;;1.95;1.85;;;;;;;3.09;100.00;102323.47;5060192;28;20135;-74
2023/12/16 02:43:55;;;;;;;2.05;1.95;;;;;;;2.03;100.00;102185.66;5062240;28;20176;-75
2023/12/16 02:46:21;;;;;;;0.52;0.52;;;;;;;2.84;100.00;102329.75;5063131;28;20110;-74
2023/12/16 02:48:47;;;;;;;0.40;0.40;;;;;;;2.86;100.00;102315.19;5065202;28;20035;-75
2023/12/16 02:51:19;;;;;;;0.50;0.50;;;;;;;3.02;100.00;102329.09;5066144;28;20143;-74
2023/12/16 02:53:45;;;;;;;0.50;0.50;;;;;;;2.68;100.00;102316.63;5062522;28;20055;-74
2023/12/16 02:56:12;;;;;;;0.30;0.30;;;;;;;2.57;100.00;102308.16;5061903;28;20044;-74
2023/12/16 02:58:37;;;;;;;0.32;0.32;;;;;;;1.99;100.00;102229.34;5062817;28;20398;-74
2023/12/16 03:01:03;;;;;;;0.70;0.70;;;;;;;2.51;100.00;102324.25;5058391;28;20039;-75
2023/12/16 03:03:28;;;;;;;1.95;1.85;;;;;;;2.82;100.00;102333.94;5066282;28;20135;-74
2023/12/16 03:05:54;;;;;;;0.40;0.40;;;;;;;2.25;100.00;102238.81;5057147;28;20152;-75
2023/12/16 03:08:19;;;;;;;0.82;0.82;;;;;;;2.23;100.00;102264.59;5042283;28;20408;-74
2023/12/16 03:10:45;;;;;;;3.38;3.15;;;;;;;2.63;100.00;102333.59;5065071;28;20051;-75
2023/12/16 03:13:10;;;;;;;0.38;0.38;;;;;;;2.14;100.00;102274.38;5064888;28;20033;-74
2023/12/16 03:15:36;;;;;;;0.40;0.40;;;;;;;2.56;100.00;102311.56;5064816;28;20071;-75
2023/12/16 03:18:01;;;;;;;2.47;2.38;;;;;;;2.83;100.00;102365.94;5061995;28;20041;-73
2023/12/16 03:20:30;;;;;;;0.40;0.40;;;;;;;2.62;100.00;102326.59;5064709;28;20500;-74
2023/12/16 03:22:55;;;;;;;0.38;0.38;;;;;;;2.53;100.00;102358.03;5067639;28;20053;-75
2023/12/16 03:25:22;;;;;;;0.75;0.75;;;;;;;2.01;100.00;102256.25;5070041;28;20391;-74
2023/12/16 03:27:47;;;;;;;2.47;2.30;;;;;;;2.72;100.00;102353.22;5074062;28;20078;-74
2023/12/16 03:30:13;;;;;;;0.30;0.30;;;;;;;2.91;100.00;102367.34;5040150;28;20127;-74
2023/12/16 03:32:39;;;;;;;1.38;1.38;;;;;;;1.88;100.00;102258.03;5066324;28;20044;-73
2023/12/16 03:35:05;;;;;;;0.30;0.30;;;;;;;2.64;100.00;102369.94;5067351;28;20055;-74
2023/12/16 03:37:31;;;;;;;0.50;0.50;;;;;;;2.66;100.00;102373.53;5067063;28;20040;-75
2023/12/16 03:39:56;;;;;;;0.40;0.40;;;;;;;2.70;100.00;102382.44;5065375;28;20472;-73
2023/12/16 03:42:22;;;;;;;0.30;0.30;;;;;;;2.81;100.00;102376.22;5064776;28;20052;-74
2023/12/16 03:44:47;;;;;;;1.77;1.67;;;;;;;2.18;100.00;102276.38;5055330;28;20420;-74
2023/12/16 03:47:13;;;;;;;2.30;2.20;;;;;;;1.93;100.00;102281.66;5064640;28;20526;-73
2023/12/16 03:49:39;;;;;;;0.55;0.50;;;;;;;2.10;100.00;102269.78;5061214;28;20052;-74
2023/12/16 03:52:05;;;;;;;9.48;8.55;;;;;;;1.73;100.00;102181.09;5064588;28;20447;-74
2023/12/16 03:54:31;;;;;;;0.30;0.30;;;;;;;2.57;100.00;102349.63;5063049;28;20052;-73
2023/12/16 03:56:56;;;;;;;0.38;0.38;;;;;;;2.51;100.00;102344.06;5058989;28;20127;-75
2023/12/16 03:59:22;;;;;;;0.30;0.30;;;;;;;2.46;100.00;102348.06;5063619;28;20088;-73
2023/12/16 04:01:47;;;;;;;0.55;0.55;;;;;;;2.61;100.00;102382.72;5062333;28;20048;-74
2023/12/16 04:04:13;;;;;;;1.08;1.08;;;;;;;1.71;100.00;102269.00;5058782;28;20735;-74
2023/12/16 04:06:38;;;;;;;1.40;1.30;;;;;;;2.60;100.00;102386.13;5064212;28;20127;-73
2023/12/16 04:09:04;;;;;;;1.27;1.20;;;;;;;1.87;100.00;102284.75;5062088;28;20060;-73
2023/12/16 04:11:29;;;;;;;2.67;2.47;;;;;;;2.12;100.00;102317.38;5059753;28;20139;-73
2023/12/16 04:13:55;;;;;;;0.50;0.50;;;;;;;1.69;100.00;102310.28;5065745;28;20052;-73
2023/12/16 04:16:20;;;;;;;1.30;1.30;;;;;;;2.28;100.00;102351.25;5060473;28;20056;-73
2023/12/16 04:18:46;;;;;;;0.30;0.30;;;;;;;2.01;100.00;102339.97;5064272;28;20028;-76
2023/12/16 04:21:11;;;;;;;0.40;0.40;;;;;;;1.69;100.00;102296.47;5065776;28;20045;-74
2023/12/16 04:23:37;;;;;;;0.80;0.70;;;;;;;1.99;100.00;102340.69;5061463;28;20063;-74
2023/12/16 04:26:03;;;;;;;0.73;0.73;;;;;;;1.53;100.00;102323.00;5061955;28;20052;-74
2023/12/16 04:28:29;;;;;;;0.70;0.70;;;;;;;1.79;100.00;102386.84;5061302;28;20452;-73
2023/12/16 04:30:54;;;;;;;2.28;0.75;;;;;;;0.46;100.00;102117.59;5064886;28;20112;-74
2023/12/16 04:33:20;;;;;;;0.40;0.40;;;;;;;1.89;100.00;102385.78;5060542;28;20138;-74
2023/12/16 04:35:45;;;;;;;0.40;0.40;;;;;;;2.08;100.00;102418.97;5062792;28;20541;-74
2023/12/16 04:38:11;;;;;;;0.85;0.85;;;;;;;1.47;100.00;102364.88;5063136;28;20411;-74
2023/12/16 04:40:36;;;;;;;1.33;1.30;;;;;;;1.75;100.00;102397.78;5063878;28;20044;-74
2023/12/16 04:43:02;;;;;;;0.40;0.40;;;;;;;1.73;100.00;102406.22;5064558;28;20123;-74
2023/12/16 04:45:27;;;;;;;0.50;0.50;;;;;;;1.98;100.00;102435.56;5041604;28;20078;-75
2023/12/16 04:47:53;;;;;;;0.30;0.30;;;;;;;0.93;100.00;102307.66;5050460;28;20505;-74
2023/12/16 04:50:18;;;;;;;0.50;0.50;;;;;;;1.09;100.00;102336.38;5057566;28;20068;-74
2023/12/16 04:52:44;;;;;;;0.30;0.30;;;;;;;1.49;100.00;102416.69;5065428;28;20055;-75
2023/12/16 04:55:10;;;;;;;0.70;0.57;;;;;;;0.92;100.00;102339.47;5066088;28;20067;-74
2023/12/16 04:57:36;;;;;;;0.30;0.30;;;;;;;0.94;100.00;102341.38;5064732;28;20052;-74
2023/12/16 05:00:04;;;;;;;0.77;0.75;;;;;;;1.71;100.00;102455.31;5064691;28;20048;-74
2023/12/16 05:02:30;;;;;;;0.40;0.40;;;;;;;1.46;100.00;102456.19;5053075;28;20041;-73
2023/12/16 05:04:56;;;;;;;2.28;1.95;;;;;;;1.32;100.00;102425.00;5049354;28;20048;-74
2023/12/16 05:07:22;;;;;;;0.50;0.50;;;;;;;0.82;100.00;102366.38;5062516;28;20495;-74
2023/12/16 05:09:48;;;;;;;0.30;0.30;;;;;;;0.85;100.00;102371.72;5065312;28;20041;-73
2023/12/16 05:12:14;;;;;;;0.30;0.30;;;;;;;1.34;100.00;102447.56;5066708;28;20433;-73
2023/12/16 05:14:42;;;;;;;0.40;0.40;;;;;;;0.69;100.00;102361.09;5056829;28;20049;-73
2023/12/16 05:17:07;;;;;;;0.30;0.30;;;;;;;0.77;100.00;102376.38;5057314;28;20068;-73
2023/12/16 05:19:33;;;;;;;0.40;0.40;;;;;;;0.49;100.00;102328.66;5061509;28;20063;-74
2023/12/16 05:21:58;;;;;;;0.40;0.40;;;;;;;1.07;100.00;102443.03;5069575;28;20017;-74
2023/12/16 05:24:24;;;;;;;0.40;0.40;;;;;;;0.11;100.00;102270.00;5061909;28;20114;-73
2023/12/16 05:26:50;;;;;;;0.30;0.30;;;;;;;0.97;100.00;102421.69;5062722;28;20055;-73
2023/12/16 05:29:15;;;;;;;0.40;0.40;;;;;;;0.36;100.00;102312.28;5058184;28;20048;-73
2023/12/16 05:31:41;;;;;;;0.40;0.40;;;;;;;0.95;100.00;102430.13;5065959;28;20451;-73
2023/12/16 05:34:07;;;;;;;7.75;7.38;;;;;;;0.90;100.00;102411.72;5065921;28;20024;-73
2023/12/16 05:36:32;;;;;;;0.40;0.40;;;;;;;0.50;100.00;102349.44;5062502;28;20076;-73
2023/12/16 05:38:58;;;;;;;0.40;0.40;;;;;;;0.98;100.00;102425.19;5062174;28;20067;-74
2023/12/16 05:41:23;;;;;;;0.45;0.45;;;;;;;0.48;100.00;102348.44;5063118;28;20423;-73
2023/12/16 05:43:49;;;;;;;3.53;3.35;;;;;;;0.53;100.00;102372.91;5063961;28;20051;-74
2023/12/16 05:46:14;;;;;;;0.70;0.70;;;;;;;1.02;100.00;102468.56;5061686;28;20029;-74
2023/12/16 05:48:40;;;;;;;0.50;0.50;;;;;;;0.74;100.00;102417.47;5060732;28;20184;-73
2023/12/16 05:51:06;;;;;;;0.40;0.40;;;;;;;1.17;100.00;102467.09;5064291;28;20123;-73
2023/12/16 05:53:34;;;;;;;0.40;0.40;;;;;;;1.13;100.00;102467.66;5060132;28;20068;-74
2023/12/16 05:56:00;;;;;;;0.38;0.38;;;;;;;0.86;100.00;102439.81;5063805;28;20032;-74
2023/12/16 05:58:26;;;;;;;1.17;1.17;;;;;;;1.10;100.00;102484.59;5057937;28;20035;-73
2023/12/16 06:00:51;;;;;;;0.38;0.38;;;;;;;1.11;100.00;102481.25;5065261;28;20032;-74
2023/12/16 06:03:17;;;;;;;0.43;0.43;;;;;;;1.12;100.00;102496.84;5059786;28;20048;-74
2023/12/16 06:05:42;;;;;;;1.38;1.27;;;;;;;0.84;100.00;102462.94;5064168;28;20040;-74
2023/12/16 06:08:08;;;;;;;0.40;0.40;;;;;;;0.39;100.00;102365.84;5055696;28;20774;-74
2023/12/16 06:10:33;;;;;;;1.05;1.05;;;;;;;1.02;100.00;102479.78;5063174;28;20112;-74
2023/12/16 06:12:59;;;;;;;0.20;0.20;;;;;;;0.24;100.00;102372.47;5062188;28;20093;-74
2023/12/16 06:15:25;;;;;;;0.30;0.30;;;;;;;0.71;100.00;102400.88;5059318;28;20452;-74
2023/12/16 06:17:50;;;;;;;0.40;0.40;;;;;;;1.15;100.00;102501.38;5060829;28;20132;-75
2023/12/16 06:20:16;;;;;;;0.40;0.40;;;;;;;0.92;100.00;102482.50;5049782;28;20139;-74
2023/12/16 06:22:42;;;;;;;1.13;1.10;;;;;;;0.56;100.00;102413.53;5039418;28;20497;-74
2023/12/16 06:25:08;;;;;;;0.47;0.47;;;;;;;1.15;100.00;102512.59;5055615;28;20029;-73
2023/12/16 06:27:33;;;;;;;0.50;0.50;;;;;;;0.44;100.00;102416.13;5060859;28;20114;-76
2023/12/16 06:29:59;;;;;;;0.30;0.30;;;;;;;1.40;100.00;102533.34;5059234;28;20051;-75
2023/12/16 06:32:24;;;;;;;0.30;0.30;;;;;;;0.58;100.00;102427.47;5065143;28;20056;-75
2023/12/16 06:34:50;;;;;;;0.50;0.50;;;;;;;0.70;100.00;102422.28;5059489;28;20037;-75
2023/12/16 06:37:15;;;;;;;8.32;7.88;;;;;;;0.63;100.00;102437.38;5069172;28;20847;-74
2023/12/16 06:39:41;;;;;;;0.35;0.35;;;;;;;0.70;100.00;102422.28;5055540;28;20495;-74
2023/12/16 06:42:07;;;;;;;1.20;1.20;;;;;;;0.70;100.00;102438.69;5023910;28;20053;-74
2023/12/16 06:44:34;;;;;;;0.50;0.50;;;;;;;1.30;100.00;102532.59;5050099;28;20075;-74
2023/12/16 06:46:59;;;;;;;0.47;0.47;;;;;;;1.25;100.00;102535.75;5035122;28;20809;-74
2023/12/16 06:49:26;;;;;;;0.50;0.50;;;;;;;1.24;100.00;102546.88;5058613;28;20063;-74
2023/12/16 06:51:52;;;;;;;0.30;0.30;;;;;;;0.51;100.00;102423.53;5061999;28;20044;-74
2023/12/16 06:54:17;;;;;;;0.30;0.30;;;;;;;1.26;100.00;102567.66;5040718;28;20048;-75
2023/12/16 06:56:43;;;;;;;0.50;0.50;;;;;;;0.97;100.00;102531.94;5061402;28;20122;-73
2023/12/16 06:59:08;;;;;;;0.30;0.30;;;;;;;0.76;100.00;102477.91;5058786;28;20049;-74
2023/12/16 07:01:34;;;;;;;0.68;0.68;;;;;;;0.47;100.00;102418.97;5059312;28;20048;-74
2023/12/16 07:03:59;;;;;;;0.40;0.40;;;;;;;0.90;100.00;102449.59;5040697;28;20041;-74
2023/12/16 07:06:25;;;;;;;0.30;0.30;;;;;;;0.82;100.00;102451.63;5058546;28;20667;-74
2023/12/16 07:08:50;;;;;;;0.40;0.40;;;;;;;1.35;100.00;102570.91;5065264;28;20048;-75
2023/12/16 07:11:17;;;;;;;0.47;0.47;;;;;;;1.37;100.00;102568.44;5057832;28;20056;-75
2023/12/16 07:13:42;;;;;;;0.40;0.40;;;;;;;0.91;100.00;102480.69;5054724;28;20457;-74
2023/12/16 07:16:09;;;;;;;0.30;0.30;;;;;;;1.21;100.00;102501.78;5058097;28;20036;-74
2023/12/16 07:18:35;;;;;;;0.40;0.40;;;;;;;1.58;100.00;102551.88;5057953;28;20496;-74
2023/12/16 07:21:05;;;;;;;0.38;0.38;;;;;;;0.83;100.00;102487.00;5056398;28;20052;-73
2023/12/16 07:23:33;;;;;;;1.73;1.65;;;;;;;1.31;100.00;102568.91;5054885;28;20079;-75
2023/12/16 07:25:59;;;;;;;0.52;0.52;;;;;;;0.99;100.00;102501.94;5053916;28;20061;-75
2023/12/16 07:28:24;;;;;;;0.60;0.60;;;;;;;0.97;100.00;102482.84;5058881;28;20179;-74
2023/12/16 07:30:50;;;;;;;0.30;0.30;;;;;;;0.85;100.00;102464.75;5059496;28;20111;-74
2023/12/16 07:33:15;;;;;;;0.40;0.40;;;;;;;1.02;100.00;102479.78;5057734;28;20049;-73
2023/12/16 07:35:41;;;;;;;0.30;0.30;;;;;;;1.57;100.00;102604.41;5060376;28;20528;-74
2023/12/16 07:38:08;;;;;;;1.65;1.55;;;;;;;0.95;100.00;102507.66;5066429;28;20075;-74
2023/12/16 07:40:35;;;;;;;1.02;1.00;;;;;;;0.92;100.00;102502.28;5059182;28;20506;-74
2023/12/16 07:43:02;;;;;;;0.32;0.32;;;;;;;1.55;100.00;102579.22;5055197;28;20170;-75
2023/12/16 07:45:27;;;;;;;0.30;0.30;;;;;;;0.99;100.00;102517.47;5042050;28;20135;-73
2023/12/16 07:47:52;;;;;;;0.30;0.30;;;;;;;1.62;100.00;102608.22;5062951;28;20082;-74
2023/12/16 07:50:20;;;;;;;0.38;0.38;;;;;;;1.64;100.00;102631.63;5061636;28;20045;-75
2023/12/16 07:52:46;;;;;;;0.30;0.30;;;;;;;1.04;100.00;102541.94;5062714;28;20040;-75
2023/12/16 07:55:12;;;;;;;0.40;0.40;;;;;;;1.00;100.00;102533.06;5045250;28;20068;-75
2023/12/16 07:57:38;;;;;;;0.30;0.30;;;;;;;1.29;100.00;102549.81;5048678;28;20407;-74
2023/12/16 08:00:04;;;;;;;0.30;0.30;;;;;;;1.83;100.00;102598.50;5057815;28;20037;-73
2023/12/16 08:02:31;;;;;;;0.40;0.40;;;;;;;1.38;100.00;102519.44;5060530;28;20055;-75
2023/12/16 08:04:57;;;;;;;3.80;2.90;;;;;;;1.51;100.00;102548.75;5063387;28;20138;-75
2023/12/16 08:07:23;;;;;;;0.30;0.30;;;;;;;1.55;100.00;102564.59;5046486;28;20037;-75
2023/12/16 08:09:49;;;;;;;0.30;0.30;;;;;;;1.38;100.00;102519.44;5043766;28;20033;-74
2023/12/16 08:12:15;;;;;;;0.30;0.30;;;;;;;2.16;100.00;102614.63;5064357;28;20049;-74
2023/12/16 08:14:41;;;;;;;0.40;0.40;;;;;;;1.85;100.00;102542.56;5056231;28;20078;-74
2023/12/16 08:17:07;;;;;;;0.40;0.40;;;;;;;1.64;100.00;102520.38;5058306;28;20604;-73
2023/12/16 08:19:33;;;;;;;0.40;0.40;;;;;;;2.23;100.00;102611.66;5062928;28;20032;-74
2023/12/16 08:22:00;;;;;;;0.63;0.63;;;;;;;1.63;100.00;102619.47;5066370;28;20056;-76
2023/12/16 08:24:29;;;;;;;0.40;0.40;;;;;;;1.80;100.00;102610.31;5046729;28;20056;-74
2023/12/16 08:26:54;;;;;;;0.40;0.40;;;;;;;2.18;100.00;102618.22;5059618;28;20048;-76
2023/12/16 08:29:20;;;;;;;0.30;0.30;;;;;;;1.18;100.00;102527.44;5055849;28;20502;-75
2023/12/16 08:31:46;;;;;;;0.40;0.40;;;;;;;1.66;100.00;102628.38;5056299;28;20178;-75
2023/12/16 08:34:12;;;;;;;0.60;0.60;;;;;;;1.52;100.00;102543.66;5063352;28;20090;-76
2023/12/16 08:36:38;;;;;;;0.38;0.38;;;;;;;1.59;100.00;102589.91;5061172;28;20109;-75
2023/12/16 08:39:06;;;;;;;0.40;0.40;;;;;;;2.00;100.00;102648.88;5062094;28;20052;-74
2023/12/16 08:41:31;;;;;;;0.40;0.40;;;;;;;1.75;100.00;102541.81;5059579;28;20052;-75
2023/12/16 08:43:58;;;;;;;7.88;6.03;;;;;;;2.23;100.00;102616.84;5054394;28;20150;-74
2023/12/16 08:46:25;;;;;;;0.47;0.47;;;;;;;2.37;100.00;102647.97;5056919;28;20037;-75
2023/12/16 08:48:53;;;;;;;0.30;0.30;;;;;;;1.79;100.00;102520.53;5042961;28;20036;-75
2023/12/16 08:51:23;;;;;;;0.52;0.52;;;;;;;2.63;100.00;102637.72;5061783;28;20129;-74
2023/12/16 08:53:48;;;;;;;0.40;0.40;;;;;;;2.71;100.00;102635.63;5055527;28;20445;-77
2023/12/16 08:56:17;;;;;;;0.30;0.30;;;;;;;2.42;100.00;102555.94;5058870;28;20048;-83
2023/12/16 08:58:46;;;;;;;0.40;0.40;;;;;;;2.31;100.00;102547.41;5041771;28;20041;-77
2023/12/16 09:01:14;;;;;;;0.50;0.50;;;;;;;1.54;100.00;102511.03;5065956;28;20039;-81
2023/12/16 09:03:43;;;;;;;0.35;0.35;;;;;;;2.06;100.00;102620.84;5055953;28;20040;-78
2023/12/16 09:06:09;;;;;;;0.68;0.68;;;;;;;2.53;100.00;102604.19;5056097;28;20049;-72
2023/12/16 09:08:35;;;;;;;0.50;0.50;;;;;;;2.52;100.00;102587.72;5060343;28;20102;-74
2023/12/16 09:11:00;;;;;;;0.50;0.50;;;;;;;2.92;100.00;102599.88;5055371;28;20099;-73
2023/12/16 09:13:26;;;;;;;2.35;2.25;;;;;;;3.04;100.00;102610.16;5057458;28;20037;-74
2023/12/16 09:15:52;;;;;;;0.40;0.40;;;;;;;3.15;100.00;102607.47;5060386;28;20448;-74
2023/12/16 09:18:20;;;;;;;4.00;2.33;;;;;;;2.91;100.00;102536.75;5067671;28;20083;-73
2023/12/16 09:20:45;;;;;;;0.50;0.50;;;;;;;3.02;100.00;102542.66;5056978;28;20049;-73
2023/12/16 09:23:11;;;;;;;0.40;0.40;;;;;;;2.77;100.00;102511.63;5057742;28;20412;-72
2023/12/16 09:25:36;;;;;;;0.30;0.30;;;;;;;2.65;100.00;102485.78;5057116;28;20049;-73
2023/12/16 09:28:02;;;;;;;0.30;0.30;;;;;;;2.84;100.00;102583.81;5057994;28;20017;-74
2023/12/16 09:30:27;;;;;;;1.17;1.17;;;;;;;2.65;100.00;102485.78;5056896;28;20479;-73
2023/12/16 09:32:53;;;;;;;1.05;1.05;;;;;;;3.30;100.00;102583.31;5059302;28;20125;-73
2023/12/16 09:35:18;;;;;;;0.30;0.30;;;;;;;2.72;100.00;102564.88;5059169;28;20049;-74
2023/12/16 09:37:44;;;;;;;0.50;0.50;;;;;;;2.84;100.00;102569.97;5067572;28;20203;-74
2023/12/16 09:40:11;;;;;;;0.50;0.50;;;;;;;3.23;100.00;102583.72;5059365;28;20523;-72
2023/12/16 09:42:39;;;;;;;0.35;0.35;;;;;;;2.88;100.00;102590.09;5066696;28;20040;-74
2023/12/16 09:45:05;;;;;;;0.40;0.40;;;;;;;2.76;100.00;102582.38;5054933;28;20136;-74
2023/12/16 09:47:32;;;;;;;0.40;0.40;;;;;;;2.93;100.00;102562.78;5057536;28;20040;-73
2023/12/16 09:49:59;;;;;;;0.30;0.30;;;;;;;2.14;100.00;102462.50;5057868;28;20609;-72
2023/12/16 09:52:26;;;;;;;1.50;1.40;;;;;;;2.69;100.00;102577.59;5060365;28;20032;-73
2023/12/16 09:54:51;;;;;;;0.30;0.30;;;;;;;2.77;100.00;102591.09;5059335;28;20511;-73
2023/12/16 09:57:19;;;;;;;0.50;0.50;;;;;;;2.66;100.00;102575.69;5061378;28;20147;-76
2023/12/16 09:59:46;;;;;;;0.30;0.30;;;;;;;2.88;100.00;102572.88;5065072;28;20075;-73
2023/12/16 10:02:41;;;;;;;0.40;0.40;;;;;;;3.02;100.00;102583.22;5067673;28;20052;-72
2023/12/16 10:05:11;;;;;;;0.55;0.55;;;;;;;2.88;100.00;102584.91;5028778;28;20445;-73
2023/12/16 10:07:37;;;;;;;0.40;0.40;;;;;;;2.58;100.00;102589.84;5050012;28;20033;-73
2023/12/16 10:10:04;;;;;;;0.55;0.55;;;;;;;2.97;100.00;102595.88;5028202;28;20114;-73
2023/12/16 10:12:33;;;;;;;0.40;0.40;;;;;;;2.17;100.00;102493.78;5058980;28;20053;-74
2023/12/16 10:14:59;;;;;;;7.57;6.95;;;;;;;3.02;100.00;102594.53;5054940;28;20041;-74
2023/12/16 10:17:25;;;;;;;0.52;0.52;;;;;;;2.90;100.00;102597.19;5040783;28;20113;-72
2023/12/16 10:19:51;;;;;;;0.80;0.75;;;;;;;2.73;100.00;102596.06;5046686;28;20464;-72
2023/12/16 10:22:18;;;;;;;2.05;1.95;;;;;;;2.36;100.00;102558.09;5057685;28;20119;-72
2023/12/16 10:24:46;;;;;;;0.47;0.47;;;;;;;2.47;100.00;102585.63;5064135;28;20036;-75
2023/12/16 10:27:13;;;;;;;0.40;0.40;;;;;;;1.95;100.00;102506.97;5066130;28;20055;-73
2023/12/16 10:29:40;;;;;;;0.40;0.40;;;;;;;2.53;100.00;102619.75;5060098;28;20048;-72
2023/12/16 10:32:12;;;;;;;0.30;0.30;;;;;;;3.01;100.00;102618.63;5058941;28;20044;-73
2023/12/16 10:34:38;;;;;;;0.45;0.45;;;;;;;3.24;100.00;102596.81;5061893;28;20049;-72
2023/12/16 10:37:05;;;;;;;0.30;0.30;;;;;;;3.27;100.00;102593.50;5069945;28;20112;-73
2023/12/16 10:39:31;;;;;;;0.40;0.40;;;;;;;3.57;100.00;102589.41;5063488;28;20076;-73
2023/12/16 10:41:57;;;;;;;12.30;7.63;;;;;;;3.59;100.00;102529.00;5064990;28;20063;-73
2023/12/16 10:44:23;;;;;;;0.50;0.50;;;;;;;3.24;100.00;102594.22;5054710;28;20048;-74
2023/12/16 10:46:52;;;;;;;0.40;0.40;;;;;;;2.89;100.00;102610.94;5064739;28;20396;-73
2023/12/16 10:49:18;;;;;;;1.92;1.83;;;;;;;2.59;100.00;102528.53;5038975;28;20037;-74
2023/12/16 10:51:49;;;;;;;9.43;8.48;;;;;;;3.08;100.00;102609.56;5067787;28;20040;-74
2023/12/16 10:54:28;;;;;;;0.60;0.60;;;;;;;2.43;100.00;102495.53;5056910;28;20839;-73
2023/12/16 10:57:12;;;;;;;0.40;0.40;;;;;;;2.65;100.00;102580.81;5063166;28;20040;-73
2023/12/16 10:59:43;;;;;;;0.30;0.30;;;;;;;2.35;100.00;102515.75;5065271;28;20059;-72
2023/12/16 11:02:25;;;;;;;1.77;1.67;;;;;;;2.70;100.00;102567.34;5059885;28;20420;-74
2023/12/16 11:05:06;;;;;;;0.32;0.32;;;;;;;3.11;100.00;102602.91;5049053;28;20580;-75
2023/12/16 11:07:38;;;;;;;0.30;0.30;;;;;;;2.89;100.00;102591.91;5058007;28;20106;-76
2023/12/16 11:10:05;;;;;;;0.87;0.87;;;;;;;2.24;100.00;102496.00;5041007;28;20101;-73
2023/12/16 11:12:36;;;;;;;0.30;0.30;;;;;;;2.97;100.00;102611.44;5060391;28;20558;-75
2023/12/16 11:15:07;;;;;;;0.40;0.40;;;;;;;2.81;100.00;102575.84;5064492;28;20040;-75
2023/12/16 11:18:36;;;;;;;1.52;0.98;;;;;;;3.34;100.00;102606.97;5055753;28;20105;-74
2023/12/16 11:21:07;;;;;;;0.30;0.30;;;;;;;3.28;100.00;102597.91;5013412;28;20464;-73